Time;durP1;ratioP1;P1;durP2;ratioP2;P2;SDS_P1;SDS_P2;PMS_P1;PMS_P2;Temp;Humidity;BMP_temperature;BMP_pressure;BME280_temperature;BME280_humidity;BME280_pressure;Samples;Min_cycle;Max_cycle;Signal;HPM_P1;HPM_P2
2023/05/15 00:00:33;;;;;;;17.55;15.40;;;;;;;13.86;87.77;98443.00;4302344;33;33909;-87
2023/05/15 00:03:01;;;;;;;18.17;16.27;;;;;;;14.01;86.11;98448.03;4300054;33;34250;-86
2023/05/15 00:05:28;;;;;;;20.67;17.08;;;;;;;13.62;88.85;98441.56;4301827;33;34268;-87
2023/05/15 00:07:56;;;;;;;18.27;16.37;;;;;;;13.65;88.18;98438.06;4315998;33;34231;-86
2023/05/15 00:10:23;;;;;;;18.80;16.12;;;;;;;13.76;88.28;98436.19;4313783;33;34180;-87
2023/05/15 00:12:51;;;;;;;19.10;16.90;;;;;;;13.84;87.11;98445.63;4315683;33;33598;-85
2023/05/15 00:15:18;;;;;;;20.65;17.52;;;;;;;14.09;85.19;98447.94;4315150;33;33538;-87
2023/05/15 00:17:46;;;;;;;19.15;15.77;;;;;;;13.91;86.44;98451.66;4315395;33;34238;-87
2023/05/15 00:20:14;;;;;;;21.50;16.40;;;;;;;14.22;84.57;98459.06;4289170;33;33477;-86
2023/05/15 00:22:43;;;;;;;17.87;15.38;;;;;;;14.24;84.37;98460.75;4311115;33;33273;-87
2023/05/15 00:25:11;;;;;;;19.10;15.55;;;;;;;14.47;83.08;98468.28;4315672;33;33616;-89
2023/05/15 00:27:40;;;;;;;20.00;15.23;;;;;;;14.48;82.69;98472.62;4313366;33;33843;-87
2023/05/15 00:30:08;;;;;;;22.15;17.05;;;;;;;13.92;86.21;98473.34;4302136;33;34809;-88
2023/05/15 00:32:36;;;;;;;19.08;16.27;;;;;;;13.70;87.34;98465.78;4317144;33;33249;-87
2023/05/15 00:35:04;;;;;;;17.58;15.23;;;;;;;14.19;84.83;98462.56;4315958;33;33928;-87
2023/05/15 00:37:31;;;;;;;18.30;15.80;;;;;;;13.98;85.23;98462.84;4302882;33;34082;-87
2023/05/15 00:39:59;;;;;;;19.50;15.98;;;;;;;14.23;83.92;98450.38;4302119;33;34517;-87
2023/05/15 00:42:28;;;;;;;18.40;15.77;;;;;;;13.94;85.45;98449.00;4315387;33;33627;-87
2023/05/15 00:44:55;;;;;;;18.67;15.55;;;;;;;13.94;85.47;98448.13;4313952;33;33796;-87
2023/05/15 00:47:25;;;;;;;15.95;13.75;;;;;;;14.11;84.51;98448.78;4300733;33;35079;-88
2023/05/15 00:49:53;;;;;;;17.58;15.25;;;;;;;14.07;83.97;98450.56;4301904;33;34443;-88
2023/05/15 00:52:21;;;;;;;19.67;14.75;;;;;;;13.83;86.69;98443.91;4290606;33;33331;-86
2023/05/15 00:54:48;;;;;;;20.62;14.52;;;;;;;14.39;82.94;98446.66;4302284;33;31833;-87
2023/05/15 00:57:17;;;;;;;17.77;14.70;;;;;;;14.67;81.88;98438.47;4302159;33;34257;-86
2023/05/15 00:59:44;;;;;;;17.87;15.30;;;;;;;14.38;83.10;98434.50;4290044;33;34913;-87
2023/05/15 01:02:14;;;;;;;17.27;14.20;;;;;;;14.50;82.64;98436.09;4300757;33;34499;-88
2023/05/15 01:04:42;;;;;;;19.95;15.10;;;;;;;14.51;82.04;98425.66;4302268;33;33268;-86
2023/05/15 01:07:09;;;;;;;20.65;15.82;;;;;;;14.72;81.49;98421.00;4301139;33;34624;-87
2023/05/15 01:09:41;;;;;;;20.52;16.37;;;;;;;14.38;82.52;98411.03;4300801;33;33784;-89
2023/05/15 01:12:08;;;;;;;17.87;14.80;;;;;;;14.09;84.71;98403.62;4290613;33;32039;-87
2023/05/15 01:14:36;;;;;;;18.67;15.60;;;;;;;14.26;83.34;98400.78;4289103;33;33269;-87
2023/05/15 01:17:05;;;;;;;19.23;14.90;;;;;;;14.58;82.03;98406.44;4318579;33;34147;-88
2023/05/15 01:19:34;;;;;;;21.27;15.30;;;;;;;14.79;80.64;98410.44;4315590;33;34554;-87
2023/05/15 01:22:11;;;;;;;16.87;14.98;;;;;;;14.39;82.72;98402.31;4303424;33;33278;-88
2023/05/15 01:24:58;;;;;;;17.52;15.23;;;;;;;14.65;81.15;98388.06;4316121;33;34675;-88
2023/05/15 01:27:40;;;;;;;19.55;14.98;;;;;;;14.18;83.34;98397.44;4316109;33;35383;-87
2023/05/15 01:30:22;;;;;;;18.35;16.35;;;;;;;14.27;83.73;98394.69;4315715;33;33869;-88
2023/05/15 01:32:58;;;;;;;22.83;17.10;;;;;;;13.90;86.06;98403.00;4303042;33;33396;-87
2023/05/15 01:35:50;;;;;;;20.30;17.25;;;;;;;13.96;86.53;98397.72;4315007;33;34902;-87
2023/05/15 01:38:31;;;;;;;19.83;17.37;;;;;;;13.84;87.36;98395.28;4303032;33;33819;-87
2023/05/15 01:41:05;;;;;;;20.98;18.15;;;;;;;13.90;86.28;98382.16;4302974;33;34931;-86
2023/05/15 01:43:34;;;;;;;19.95;17.77;;;;;;;13.88;86.64;98381.31;4289637;33;32754;-88
2023/05/15 01:46:02;;;;;;;22.90;17.05;;;;;;;14.00;85.87;98388.13;4303803;33;33832;-88
2023/05/15 01:48:32;;;;;;;23.35;17.00;;;;;;;14.26;84.03;98392.97;4301528;33;34732;-86
2023/05/15 01:51:02;;;;;;;20.60;16.08;;;;;;;14.47;82.17;98392.66;4314148;33;34121;-88
2023/05/15 01:53:31;;;;;;;21.70;16.25;;;;;;;14.29;83.44;98392.94;4301563;33;33730;-87
2023/05/15 01:55:59;;;;;;;18.02;15.90;;;;;;;14.25;83.54;98388.66;4301245;33;33896;-88
2023/05/15 01:58:27;;;;;;;18.02;13.98;;;;;;;14.54;82.30;98383.88;4301052;33;35012;-87
2023/05/15 02:00:55;;;;;;;18.77;15.38;;;;;;;14.58;81.63;98393.41;4301612;33;33985;-87
2023/05/15 02:03:23;;;;;;;16.37;14.00;;;;;;;14.57;81.64;98396.88;4299920;33;32958;-88
2023/05/15 02:05:52;;;;;;;17.17;14.52;;;;;;;14.78;80.11;98397.44;4289260;33;34725;-87
2023/05/15 02:08:20;;;;;;;17.60;14.43;;;;;;;14.85;80.08;98409.50;4315529;33;33810;-88
2023/05/15 02:10:48;;;;;;;16.60;14.25;;;;;;;15.09;79.20;98402.97;4302176;33;33834;-88
2023/05/15 02:13:19;;;;;;;23.62;15.93;;;;;;;14.95;79.47;98405.81;4300777;33;33881;-87
2023/05/15 02:15:46;;;;;;;19.67;15.65;;;;;;;14.86;79.81;98426.88;4314544;33;33986;-88
2023/05/15 02:18:14;;;;;;;18.55;15.15;;;;;;;15.05;79.10;98435.25;4302054;33;34007;-87
2023/05/15 02:20:42;;;;;;;17.83;14.18;;;;;;;14.68;80.46;98434.97;4297242;33;33684;-88
2023/05/15 02:23:10;;;;;;;19.75;16.17;;;;;;;14.86;79.64;98444.28;4301195;33;33562;-88
2023/05/15 02:26:03;;;;;;;19.73;15.88;;;;;;;15.28;77.84;98432.22;4314473;33;33636;-88
2023/05/15 02:28:38;;;;;;;17.40;14.35;;;;;;;14.99;78.74;98441.41;4314765;33;34325;-88
2023/05/15 02:31:25;;;;;;;19.77;15.73;;;;;;;15.10;78.56;98449.06;4301082;33;34693;-86
2023/05/15 02:34:17;;;;;;;19.52;14.75;;;;;;;15.30;77.52;98436.56;4301409;33;33452;-87
2023/05/15 02:36:47;;;;;;;17.67;14.77;;;;;;;15.31;77.42;98435.66;4301935;33;32556;-87
2023/05/15 02:39:16;;;;;;;20.92;15.95;;;;;;;15.21;77.58;98435.84;4315003;33;33944;-87
2023/05/15 02:41:45;;;;;;;20.17;15.02;;;;;;;15.20;77.46;98426.28;4300803;33;34872;-85
2023/05/15 02:44:16;;;;;;;18.60;16.05;;;;;;;15.24;77.35;98422.72;4289861;33;34545;-88
2023/05/15 02:46:46;;;;;;;19.67;15.88;;;;;;;15.44;76.78;98419.75;4301726;33;33881;-87
2023/05/15 02:49:14;;;;;;;19.20;15.20;;;;;;;15.41;76.49;98410.22;4302107;33;33789;-86
2023/05/15 02:51:41;;;;;;;18.05;15.43;;;;;;;15.46;76.48;98417.97;4300655;33;33987;-86
2023/05/15 02:54:10;;;;;;;17.50;14.40;;;;;;;15.40;76.56;98412.88;4313932;33;34260;-87
2023/05/15 02:56:37;;;;;;;20.25;14.50;;;;;;;15.54;75.90;98405.63;4314842;33;33432;-88
2023/05/15 02:59:05;;;;;;;17.62;14.38;;;;;;;15.56;76.05;98402.06;4314437;33;34315;-88
2023/05/15 03:01:33;;;;;;;18.40;14.60;;;;;;;15.62;75.81;98392.41;4313649;33;33809;-87
2023/05/15 03:04:01;;;;;;;16.73;13.95;;;;;;;15.62;75.43;98405.47;4301508;33;33673;-86
2023/05/15 03:06:30;;;;;;;18.62;15.18;;;;;;;15.56;75.79;98396.00;4313615;33;34913;-88
2023/05/15 03:08:58;;;;;;;19.73;14.85;;;;;;;15.65;75.51;98395.88;4314590;33;34273;-87
2023/05/15 03:11:25;;;;;;;22.20;16.85;;;;;;;15.44;76.33;98391.88;4314142;33;33857;-88
2023/05/15 03:13:52;;;;;;;19.05;15.43;;;;;;;15.21;77.09;98397.53;4314192;33;34408;-88
2023/05/15 03:16:20;;;;;;;19.35;14.40;;;;;;;15.34;76.52;98374.66;4315657;33;33850;-87
2023/05/15 03:18:48;;;;;;;19.80;15.07;;;;;;;15.27;76.38;98363.47;4316695;33;34127;-88
2023/05/15 03:21:16;;;;;;;22.20;16.17;;;;;;;15.24;76.76;98347.87;4315334;33;34542;-86
2023/05/15 03:23:44;;;;;;;17.65;15.40;;;;;;;14.82;78.72;98359.94;4302798;33;33741;-88
2023/05/15 03:26:11;;;;;;;18.37;15.48;;;;;;;15.00;77.72;98367.47;4316722;33;33981;-88
2023/05/15 03:28:39;;;;;;;16.98;14.15;;;;;;;15.06;77.70;98356.91;4316495;33;33909;-87
2023/05/15 03:31:08;;;;;;;17.98;15.07;;;;;;;15.28;77.05;98348.66;4315937;33;34194;-87
2023/05/15 03:33:37;;;;;;;18.70;15.68;;;;;;;15.13;77.90;98348.97;4316479;33;33691;-87
2023/05/15 03:36:05;;;;;;;20.33;14.85;;;;;;;15.29;76.89;98345.16;4316410;33;34721;-87
2023/05/15 03:38:33;;;;;;;21.83;15.25;;;;;;;15.20;77.08;98351.44;4316445;33;34049;-87
2023/05/15 03:41:00;;;;;;;17.35;14.48;;;;;;;15.27;76.98;98349.56;4315702;33;34846;-87
2023/05/15 03:43:29;;;;;;;19.08;15.77;;;;;;;15.38;76.64;98347.59;4316317;33;34219;-88
2023/05/15 03:45:58;;;;;;;17.92;14.20;;;;;;;15.42;76.53;98345.75;4316659;33;34916;-87
2023/05/15 03:48:25;;;;;;;16.52;14.38;;;;;;;15.49;76.29;98348.25;4316454;33;34217;-87
2023/05/15 03:50:53;;;;;;;23.17;16.33;;;;;;;15.59;76.06;98341.06;4290303;33;33243;-88
2023/05/15 03:53:20;;;;;;;19.25;15.38;;;;;;;15.50;76.08;98344.75;4316585;33;33135;-88
2023/05/15 03:55:48;;;;;;;21.50;15.10;;;;;;;15.55;75.96;98342.88;4316174;33;33841;-87
2023/05/15 03:58:15;;;;;;;22.25;14.32;;;;;;;15.70;75.42;98346.13;4303157;33;33981;-87
2023/05/15 04:00:43;;;;;;;19.33;15.02;;;;;;;15.60;75.86;98336.72;4315990;33;33780;-88
2023/05/15 04:03:10;;;;;;;21.50;15.65;;;;;;;15.68;75.47;98321.75;4303053;33;33288;-88
2023/05/15 04:05:38;;;;;;;27.67;17.08;;;;;;;16.03;73.86;98316.63;4316337;33;35137;-87
2023/05/15 04:08:05;;;;;;;22.58;17.33;;;;;;;15.51;75.53;98319.47;4303007;33;32618;-88
2023/05/15 04:10:33;;;;;;;19.85;15.48;;;;;;;15.38;75.99;98325.81;4302193;33;33970;-88
2023/05/15 04:13:01;;;;;;;68.32;19.42;;;;;;;15.50;75.74;98316.00;4303293;33;34219;-87
2023/05/15 04:15:28;;;;;;;24.37;16.80;;;;;;;15.67;75.12;98314.81;4316006;33;34885;-87
2023/05/15 04:17:56;;;;;;;48.80;19.17;;;;;;;15.69;74.92;98321.75;4320622;33;33791;-88
2023/05/15 04:20:24;;;;;;;33.58;17.48;;;;;;;15.61;75.49;98313.19;4324859;33;34867;-87
2023/05/15 04:22:51;;;;;;;67.82;19.48;;;;;;;15.60;75.53;98324.50;4316123;33;33819;-87
2023/05/15 04:25:19;;;;;;;64.10;20.42;;;;;;;15.24;77.00;98316.53;4316159;33;33905;-87
2023/05/15 04:27:48;;;;;;;22.05;18.35;;;;;;;15.57;75.65;98321.97;4301905;33;35042;-88
2023/05/15 04:30:17;;;;;;;24.98;18.67;;;;;;;15.64;75.37;98322.69;4315403;33;34007;-86
2023/05/15 04:32:44;;;;;;;34.33;19.27;;;;;;;15.73;75.13;98333.00;4313313;33;33268;-88
2023/05/15 04:35:13;;;;;;;21.67;18.27;;;;;;;15.65;75.46;98347.94;4316225;33;34754;-87
2023/05/15 04:37:42;;;;;;;25.80;18.27;;;;;;;15.80;74.96;98347.66;4309273;33;34338;-87
2023/05/15 04:40:11;;;;;;;24.77;18.20;;;;;;;15.81;75.07;98351.97;4302605;33;33632;-87
2023/05/15 04:42:38;;;;;;;30.67;19.23;;;;;;;16.01;74.36;98360.22;4302067;33;34301;-87
2023/05/15 04:45:06;;;;;;;25.48;17.95;;;;;;;15.94;74.61;98361.25;4302500;33;33996;-88
2023/05/15 04:47:35;;;;;;;30.35;19.77;;;;;;;16.00;74.24;98360.28;4315576;33;34056;-88
2023/05/15 04:50:02;;;;;;;28.35;19.02;;;;;;;16.01;74.25;98369.84;4291201;33;33098;-87
2023/05/15 04:52:31;;;;;;;30.92;20.90;;;;;;;16.02;74.22;98376.78;4312848;33;33141;-87
2023/05/15 04:54:58;;;;;;;29.90;19.98;;;;;;;15.99;74.16;98389.94;4302044;33;33787;-87
2023/05/15 04:57:26;;;;;;;27.90;19.98;;;;;;;16.00;74.29;98384.66;4311817;33;33995;-86
2023/05/15 04:59:53;;;;;;;30.85;20.75;;;;;;;15.86;74.33;98389.31;4312783;33;33463;-87
2023/05/15 05:02:22;;;;;;;29.17;20.40;;;;;;;16.07;73.38;98393.25;4301893;33;34319;-86
2023/05/15 05:04:49;;;;;;;28.15;20.05;;;;;;;15.66;75.21;98387.13;4290050;33;33515;-87
2023/05/15 05:07:17;;;;;;;30.10;20.27;;;;;;;15.60;75.88;98392.44;4292580;33;35069;-87
2023/05/15 05:09:44;;;;;;;29.05;19.50;;;;;;;15.76;75.38;98390.44;4314820;33;34106;-88
2023/05/15 05:12:12;;;;;;;30.12;21.02;;;;;;;15.95;75.01;98389.16;4315220;33;33593;-87
2023/05/15 05:14:40;;;;;;;27.35;19.50;;;;;;;15.46;76.85;98394.47;4315510;33;34861;-86
2023/05/15 05:17:09;;;;;;;35.97;20.30;;;;;;;15.71;76.04;98392.25;4302008;33;32845;-86
2023/05/15 05:19:36;;;;;;;26.67;18.55;;;;;;;15.45;77.21;98398.81;4315477;33;33843;-86
2023/05/15 05:22:04;;;;;;;30.42;20.92;;;;;;;15.62;76.75;98406.34;4315709;33;34047;-87
2023/05/15 05:24:36;;;;;;;29.87;20.50;;;;;;;15.61;76.71;98404.62;4316054;33;32443;-87
2023/05/15 05:27:04;;;;;;;27.52;18.83;;;;;;;15.49;77.53;98408.34;4290949;33;34917;-87
2023/05/15 05:29:32;;;;;;;23.90;17.48;;;;;;;15.53;77.45;98407.37;4315946;33;34009;-87
2023/05/15 05:32:00;;;;;;;26.52;17.00;;;;;;;15.61;77.12;98402.00;4315800;33;34321;-87
2023/05/15 05:34:29;;;;;;;26.70;18.27;;;;;;;15.65;76.80;98394.97;4315668;33;33741;-87
2023/05/15 05:36:56;;;;;;;25.30;17.23;;;;;;;15.93;75.87;98385.69;4316109;33;34379;-85
2023/05/15 05:39:24;;;;;;;26.92;18.33;;;;;;;15.90;75.51;98383.13;4314769;33;34808;-87
2023/05/15 05:41:51;;;;;;;28.83;18.27;;;;;;;15.65;76.30;98374.06;4302760;33;31890;-86
2023/05/15 05:44:19;;;;;;;28.10;18.25;;;;;;;15.26;78.69;98387.00;4315506;33;34113;-88
2023/05/15 05:46:47;;;;;;;25.40;17.67;;;;;;;15.30;78.83;98389.53;4315431;33;33791;-87
2023/05/15 05:49:14;;;;;;;26.30;18.65;;;;;;;15.86;77.06;98394.53;4315872;33;34902;-85
2023/05/15 05:51:43;;;;;;;29.83;18.83;;;;;;;15.74;77.39;98400.03;4316008;33;33653;-86
2023/05/15 05:54:13;;;;;;;28.08;19.90;;;;;;;15.29;79.92;98402.63;4315705;33;34117;-87
2023/05/15 05:56:41;;;;;;;27.73;18.20;;;;;;;15.07;81.07;98404.75;4315653;33;33812;-87
2023/05/15 05:59:09;;;;;;;25.50;17.23;;;;;;;15.19;81.45;98411.50;4302315;33;33729;-87
2023/05/15 06:01:36;;;;;;;27.70;18.62;;;;;;;15.73;78.66;98408.78;4315866;33;34364;-86
2023/05/15 06:04:04;;;;;;;25.67;17.50;;;;;;;15.68;79.13;98398.41;4315533;33;34249;-86
2023/05/15 06:06:33;;;;;;;25.20;15.90;;;;;;;15.86;79.01;98404.16;4315796;33;33898;-87
2023/05/15 06:09:01;;;;;;;22.48;15.57;;;;;;;16.07;77.42;98408.06;4302559;33;34888;-87
2023/05/15 06:11:28;;;;;;;21.27;15.40;;;;;;;15.89;78.06;98411.94;4315749;33;33576;-86
2023/05/15 06:13:56;;;;;;;20.10;14.80;;;;;;;16.15;77.44;98421.84;4315560;33;34155;-86
2023/05/15 06:16:23;;;;;;;22.80;15.85;;;;;;;15.95;78.09;98417.91;4315417;33;34105;-87
2023/05/15 06:18:51;;;;;;;17.40;12.80;;;;;;;15.99;78.08;98416.09;4315614;33;34296;-86
2023/05/15 06:21:21;;;;;;;19.92;14.73;;;;;;;15.88;78.40;98413.69;4315994;33;34287;-89
2023/05/15 06:23:48;;;;;;;19.08;13.57;;;;;;;15.91;78.24;98424.09;4302342;33;33546;-86
2023/05/15 06:26:16;;;;;;;16.73;12.02;;;;;;;16.22;77.09;98428.66;4315544;33;34288;-87
2023/05/15 06:28:44;;;;;;;17.30;12.18;;;;;;;16.29;75.99;98430.25;4315318;33;34143;-89
2023/05/15 06:31:11;;;;;;;19.65;12.77;;;;;;;16.46;75.47;98425.50;4315615;33;32661;-88
2023/05/15 06:33:39;;;;;;;19.27;13.77;;;;;;;16.36;75.55;98426.56;4301143;33;34742;-87
2023/05/15 06:36:06;;;;;;;18.23;12.07;;;;;;;16.38;75.05;98429.19;4305572;33;35075;-87
2023/05/15 06:38:34;;;;;;;17.25;11.57;;;;;;;16.52;74.95;98433.22;4315046;33;33797;-87
2023/05/15 06:41:02;;;;;;;18.30;12.63;;;;;;;16.71;74.01;98419.69;4315376;33;34469;-88
2023/05/15 06:43:30;;;;;;;16.25;10.38;;;;;;;16.80;73.51;98410.78;4315384;33;33623;-87
2023/05/15 06:45:58;;;;;;;15.80;11.50;;;;;;;16.87;72.67;98399.28;4315776;33;33363;-87
2023/05/15 06:48:25;;;;;;;15.52;11.05;;;;;;;16.83;72.62;98400.25;4314856;33;34233;-88
2023/05/15 06:50:53;;;;;;;16.42;10.93;;;;;;;16.82;72.89;98399.41;4302908;33;34298;-89
2023/05/15 06:53:21;;;;;;;12.68;9.55;;;;;;;16.69;73.56;98404.00;4300752;33;34817;-87
2023/05/15 06:55:49;;;;;;;14.48;10.00;;;;;;;16.89;72.83;98397.47;4316719;33;33695;-87
2023/05/15 06:58:16;;;;;;;14.55;10.57;;;;;;;17.07;72.18;98398.75;4313433;33;33687;-85
2023/05/15 07:00:44;;;;;;;15.40;10.43;;;;;;;17.26;71.47;98394.75;4316872;33;33644;-85
2023/05/15 07:03:13;;;;;;;13.30;9.50;;;;;;;17.30;70.78;98404.25;4317076;33;33886;-90
2023/05/15 07:05:41;;;;;;;11.18;7.80;;;;;;;17.29;71.26;98406.94;4316411;33;34794;-87
2023/05/15 07:08:08;;;;;;;13.95;8.75;;;;;;;17.57;70.14;98409.66;4317140;33;34766;-88
2023/05/15 07:10:36;;;;;;;10.88;8.48;;;;;;;17.50;70.13;98409.84;4303686;33;34176;-87
2023/05/15 07:13:03;;;;;;;10.77;8.82;;;;;;;17.55;70.24;98411.47;4316966;33;33831;-87
2023/05/15 07:15:31;;;;;;;10.50;7.65;;;;;;;17.87;69.88;98424.53;4303656;33;34165;-88
2023/05/15 07:17:58;;;;;;;13.35;7.82;;;;;;;17.66;70.50;98414.66;4316997;33;34614;-89
2023/05/15 07:20:26;;;;;;;12.37;8.27;;;;;;;17.19;71.90;98433.34;4317228;33;33325;-87
2023/05/15 07:22:58;;;;;;;10.73;7.43;;;;;;;17.60;71.24;98441.03;4304606;33;34555;-88
2023/05/15 07:25:26;;;;;;;10.50;7.03;;;;;;;17.48;71.85;98442.22;4317036;33;34088;-87
2023/05/15 07:27:54;;;;;;;10.10;7.37;;;;;;;17.20;71.82;98447.31;4316196;33;33136;-87
2023/05/15 07:30:21;;;;;;;8.93;6.07;;;;;;;17.27;70.68;98454.09;4315938;33;33512;-87
2023/05/15 07:32:49;;;;;;;11.27;7.22;;;;;;;17.49;70.38;98451.78;4315371;33;33885;-86
2023/05/15 07:35:17;;;;;;;10.32;7.03;;;;;;;17.59;69.59;98441.94;4297159;33;215831;-87
2023/05/15 07:37:45;;;;;;;12.77;8.75;;;;;;;17.71;69.47;98428.47;4316748;33;34598;-84
2023/05/15 07:40:14;;;;;;;14.10;8.98;;;;;;;17.34;70.65;98420.75;4317124;33;33567;-85
2023/05/15 07:42:42;;;;;;;10.07;7.53;;;;;;;17.43;70.75;98424.00;4316454;33;33863;-84
2023/05/15 07:45:10;;;;;;;13.32;8.75;;;;;;;17.89;69.61;98427.16;4303189;33;33712;-84
2023/05/15 07:47:41;;;;;;;10.48;7.68;;;;;;;17.88;70.04;98425.41;4316424;33;34785;-86
2023/05/15 07:50:09;;;;;;;10.95;7.57;;;;;;;17.74;69.93;98425.78;4315971;33;34223;-86
2023/05/15 07:52:37;;;;;;;10.68;7.70;;;;;;;17.51;70.38;98414.16;4316540;33;33800;-86
2023/05/15 07:55:06;;;;;;;9.45;7.03;;;;;;;17.69;69.31;98410.19;4303496;33;33947;-86
2023/05/15 10:34:13;;;;;;;5.40;2.83;;;;;;;19.31;61.96;98503.28;4359258;27;19984;-91
2023/05/15 10:36:41;;;;;;;5.37;2.33;;;;;;;18.62;64.11;98508.06;4318060;33;34139;-83
2023/05/15 10:39:09;;;;;;;3.75;2.20;;;;;;;19.09;62.77;98505.75;4317880;33;33753;-82
2023/05/15 10:41:38;;;;;;;3.75;1.90;;;;;;;19.09;62.63;98508.38;4318121;33;33874;-82
2023/05/15 10:44:06;;;;;;;3.60;1.80;;;;;;;18.83;62.38;98509.22;4317898;33;34870;-82
2023/05/15 10:46:34;;;;;;;4.62;2.10;;;;;;;18.75;62.82;98511.22;4318066;33;34569;-83
2023/05/15 10:49:03;;;;;;;3.58;1.75;;;;;;;19.08;61.79;98509.28;4318270;33;33851;-82
2023/05/15 10:51:32;;;;;;;3.53;1.90;;;;;;;19.09;62.92;98503.12;4305046;33;32987;-82
2023/05/15 10:54:02;;;;;;;3.05;1.75;;;;;;;19.13;62.84;98503.00;4318235;33;33970;-81
2023/05/15 10:56:30;;;;;;;3.45;2.05;;;;;;;19.56;59.54;98498.06;4331412;33;34174;-82
2023/05/15 10:59:07;;;;;;;3.40;1.83;;;;;;;19.53;60.88;98495.53;4320643;33;33620;-85
2023/05/15 11:01:37;;;;;;;5.47;1.90;;;;;;;19.59;60.83;98497.97;4318024;33;33995;-85
2023/05/15 11:04:16;;;;;;;4.55;1.85;;;;;;;19.82;63.32;98498.06;4331289;33;34701;-83
2023/05/15 11:06:48;;;;;;;3.42;1.80;;;;;;;19.67;60.42;98501.22;4318338;33;33928;-83
2023/05/15 11:09:23;;;;;;;4.82;1.80;;;;;;;19.82;59.97;98495.44;4331561;33;34045;-87
2023/05/15 11:11:55;;;;;;;3.17;1.77;;;;;;;19.52;60.85;98493.84;4331522;33;34285;-85
2023/05/15 11:14:26;;;;;;;4.80;1.90;;;;;;;20.00;58.30;98486.03;4323195;33;33954;-84
2023/05/15 11:16:54;;;;;;;7.45;2.40;;;;;;;20.08;59.15;98485.75;4316875;33;32867;-83
2023/05/15 11:19:27;;;;;;;4.62;2.75;;;;;;;19.96;59.09;98479.13;4316303;33;34504;-91
2023/05/15 11:22:00;;;;;;;5.47;3.17;;;;;;;19.87;62.00;98488.22;4316928;33;35026;-85
2023/05/15 11:24:29;;;;;;;4.32;2.58;;;;;;;19.62;59.73;98480.34;4303384;33;32495;-83
2023/05/15 11:27:01;;;;;;;3.10;1.70;;;;;;;19.67;61.06;98480.19;4303099;33;33369;-92
2023/05/15 11:29:30;;;;;;;3.80;1.85;;;;;;;20.48;56.76;98479.81;4303472;33;33892;-83
2023/05/15 11:31:58;;;;;;;3.20;1.77;;;;;;;20.21;58.10;98484.37;4303582;33;33692;-83
2023/05/15 11:34:30;;;;;;;5.62;2.37;;;;;;;20.53;55.79;98490.22;4316454;33;34360;-84
2023/05/15 11:37:01;;;;;;;3.75;2.00;;;;;;;19.72;60.09;98491.41;4303254;33;33730;-84
2023/05/15 11:39:28;;;;;;;4.50;1.90;;;;;;;20.12;57.31;98475.03;4303472;33;33882;-84
2023/05/15 11:41:56;;;;;;;4.75;2.42;;;;;;;19.90;58.29;98479.38;4303676;33;33797;-84
2023/05/15 11:44:25;;;;;;;3.60;1.90;;;;;;;19.85;58.03;98481.28;4316210;33;34736;-87
2023/05/15 11:46:53;;;;;;;4.28;2.20;;;;;;;20.29;59.01;98478.81;4303666;33;33497;-84
2023/05/15 11:49:21;;;;;;;5.80;2.05;;;;;;;20.48;56.83;98469.28;4316016;33;33879;-84
2023/05/15 11:51:50;;;;;;;20.58;4.62;;;;;;;20.40;57.39;98469.59;4302949;33;34201;-89
2023/05/15 11:54:17;;;;;;;3.70;1.70;;;;;;;20.35;60.11;98471.56;4317665;33;34849;-91
2023/05/15 11:56:46;;;;;;;4.82;1.60;;;;;;;19.99;57.89;98470.28;4305161;33;34104;-82
2023/05/15 11:59:13;;;;;;;3.35;1.52;;;;;;;19.64;59.03;98473.25;4302890;33;33512;-88
2023/05/15 12:01:42;;;;;;;7.68;2.47;;;;;;;19.83;58.26;98470.84;4315783;33;34089;-84
2023/05/15 12:04:12;;;;;;;2.55;1.40;;;;;;;19.82;59.16;98477.00;4303052;33;33587;-88
2023/05/15 12:06:40;;;;;;;3.15;1.75;;;;;;;19.56;57.98;98471.78;4291033;33;32989;-82
2023/05/15 12:09:13;;;;;;;2.20;1.12;;;;;;;19.89;57.44;98469.78;4316539;33;33831;-82
2023/05/15 12:11:40;;;;;;;2.95;1.60;;;;;;;19.42;59.18;98475.72;4290737;33;33625;-82
2023/05/15 12:14:11;;;;;;;2.85;1.40;;;;;;;19.37;58.37;98482.91;4316332;33;33680;-90
2023/05/15 12:16:38;;;;;;;3.90;1.12;;;;;;;19.22;57.72;98487.84;4316499;33;34216;-82
2023/05/15 12:19:06;;;;;;;2.55;1.30;;;;;;;19.66;58.93;98481.06;4316377;33;33726;-91
2023/05/15 12:21:34;;;;;;;2.78;1.35;;;;;;;19.63;58.37;98482.06;4302632;33;34161;-82
2023/05/15 12:24:04;;;;;;;2.83;1.50;;;;;;;19.98;56.40;98484.34;4316622;33;33821;-84
2023/05/15 12:26:35;;;;;;;4.85;2.22;;;;;;;19.95;56.41;98484.47;4316748;33;33519;-91
2023/05/15 12:29:03;;;;;;;3.25;1.40;;;;;;;19.91;57.51;98491.59;4303514;33;34455;-90
2023/05/15 12:31:32;;;;;;;2.45;1.30;;;;;;;20.21;55.70;98497.53;4315712;33;33864;-88
2023/05/15 12:34:00;;;;;;;3.42;1.35;;;;;;;19.83;57.75;98502.41;4316165;33;33398;-82
2023/05/15 12:36:30;;;;;;;4.00;1.50;;;;;;;19.52;58.50;98496.47;4303188;33;33635;-82
2023/05/15 12:39:03;;;;;;;2.15;1.30;;;;;;;19.92;58.04;98494.16;4302437;33;33890;-88
2023/05/15 12:41:31;;;;;;;2.95;1.45;;;;;;;20.09;56.59;98493.56;4296051;33;35280;-84
2023/05/15 12:43:58;;;;;;;1.87;1.17;;;;;;;19.98;56.66;98484.34;4303467;33;33677;-82
2023/05/15 12:46:30;;;;;;;3.92;1.10;;;;;;;20.44;55.20;98487.91;4316328;33;33297;-91
2023/05/15 12:48:58;;;;;;;2.90;0.90;;;;;;;20.09;56.51;98497.97;4315938;33;34127;-91
2023/05/15 12:51:28;;;;;;;2.65;0.70;;;;;;;20.00;54.95;98490.41;4316087;33;34049;-92
2023/05/15 12:53:57;;;;;;;7.72;1.10;;;;;;;20.23;53.08;98477.28;4303494;33;33990;-90
2023/05/15 12:56:25;;;;;;;2.75;1.10;;;;;;;20.40;53.10;98468.75;4316150;33;33198;-90
2023/05/15 12:58:53;;;;;;;2.35;0.80;;;;;;;20.59;52.27;98468.91;4303047;33;34594;-90
2023/05/15 13:01:20;;;;;;;1.45;0.68;;;;;;;20.86;52.64;98465.19;4302701;33;34856;-92
2023/05/15 13:03:49;;;;;;;2.22;1.00;;;;;;;20.68;51.55;98458.00;4316267;33;33923;-84
2023/05/15 13:06:17;;;;;;;1.40;0.68;;;;;;;21.27;49.68;98448.59;4316346;33;33969;-90
2023/05/15 13:08:45;;;;;;;4.47;0.85;;;;;;;21.77;48.83;98443.81;4316479;33;33996;-89
2023/05/15 13:11:17;;;;;;;4.75;1.02;;;;;;;21.27;50.74;98454.72;4303266;33;33894;-83
2023/05/15 13:13:46;;;;;;;2.25;0.70;;;;;;;21.39;50.20;98463.94;4315543;33;34283;-90
2023/05/15 13:16:21;;;;;;;1.83;0.60;;;;;;;21.09;50.03;98461.63;4288602;33;33630;-83
2023/05/15 13:18:49;;;;;;;1.58;0.80;;;;;;;20.86;51.94;98452.00;4288746;33;33740;-85
2023/05/15 13:21:17;;;;;;;1.33;0.68;;;;;;;21.18;51.86;98449.84;4300721;33;35035;-88
2023/05/15 13:23:44;;;;;;;1.92;0.98;;;;;;;20.68;52.19;98454.53;4288627;33;35126;-88
2023/05/15 13:26:12;;;;;;;1.25;0.62;;;;;;;21.30;50.23;98443.22;4302674;33;33294;-83
2023/05/15 13:28:40;;;;;;;2.42;1.00;;;;;;;21.28;50.62;98435.34;4316419;33;33763;-83
2023/05/15 13:31:07;;;;;;;1.83;0.70;;;;;;;21.03;50.71;98442.59;4313735;33;34235;-90
2023/05/15 13:33:35;;;;;;;2.28;0.80;;;;;;;21.19;50.99;98435.75;4315934;33;34782;-83
2023/05/15 13:36:02;;;;;;;1.62;0.82;;;;;;;20.93;51.94;98438.59;4315763;33;33438;-82
2023/05/15 13:38:30;;;;;;;2.45;1.10;;;;;;;20.98;51.21;98437.47;4299511;33;34674;-85
2023/05/15 13:40:58;;;;;;;2.10;0.93;;;;;;;20.61;53.85;98436.34;4315555;33;34045;-91
2023/05/15 13:43:25;;;;;;;2.05;1.00;;;;;;;20.87;53.69;98435.31;4316073;33;34279;-90
2023/05/15 13:45:53;;;;;;;1.70;1.02;;;;;;;20.92;51.13;98431.63;4315721;33;33113;-89
2023/05/15 13:48:21;;;;;;;2.95;1.15;;;;;;;20.92;52.50;98436.91;4315632;33;33815;-85
2023/05/15 13:50:48;;;;;;;1.52;0.70;;;;;;;20.98;52.97;98434.84;4290591;33;34406;-83
2023/05/15 13:53:16;;;;;;;2.85;0.65;;;;;;;21.05;52.05;98427.53;4315985;33;33932;-85
2023/05/15 13:55:44;;;;;;;5.72;1.20;;;;;;;21.21;50.03;98428.59;4315538;33;34392;-83
2023/05/15 13:58:12;;;;;;;2.33;0.90;;;;;;;20.83;51.16;98433.69;4302278;33;32431;-82
2023/05/15 14:00:41;;;;;;;3.12;1.00;;;;;;;20.47;51.86;98443.88;4301558;33;34214;-83
2023/05/15 14:03:09;;;;;;;3.65;1.10;;;;;;;20.64;51.66;98444.09;4302534;33;34318;-83
2023/05/15 14:05:41;;;;;;;3.55;0.90;;;;;;;20.94;50.82;98445.56;4315719;33;33673;-89